sensor_id;sensor_type;location;lat;lon;timestamp;P1;durP1;ratioP1;P2;durP2;ratioP2
22236;SDS011;11287;48.122;11.536;2023-06-04T00:00:37;5.95;;;4.43;;
22236;SDS011;11287;48.122;11.536;2023-06-04T00:03:02;7.38;;;4.63;;
22236;SDS011;11287;48.122;11.536;2023-06-04T00:05:27;6.78;;;4.72;;
22236;SDS011;11287;48.122;11.536;2023-06-04T00:07:52;10.88;;;5.00;;
22236;SDS011;11287;48.122;11.536;2023-06-04T00:10:21;10.18;;;4.53;;
22236;SDS011;11287;48.122;11.536;2023-06-04T00:12:46;8.55;;;4.82;;
22236;SDS011;11287;48.122;11.536;2023-06-04T00:15:12;7.13;;;4.20;;
22236;SDS011;11287;48.122;11.536;2023-06-04T00:17:38;6.40;;;3.88;;
22236;SDS011;11287;48.122;11.536;2023-06-04T00:20:04;8.88;;;4.20;;
22236;SDS011;11287;48.122;11.536;2023-06-04T00:22:30;7.45;;;4.13;;
22236;SDS011;11287;48.122;11.536;2023-06-04T00:24:55;8.20;;;3.80;;
22236;SDS011;11287;48.122;11.536;2023-06-04T00:27:20;4.45;;;3.70;;
22236;SDS011;11287;48.122;11.536;2023-06-04T00:29:46;6.20;;;3.58;;
22236;SDS011;11287;48.122;11.536;2023-06-04T00:32:11;7.45;;;3.72;;
22236;SDS011;11287;48.122;11.536;2023-06-04T00:34:36;9.43;;;3.92;;
22236;SDS011;11287;48.122;11.536;2023-06-04T00:37:02;6.00;;;3.28;;
22236;SDS011;11287;48.122;11.536;2023-06-04T00:39:27;5.00;;;3.55;;
22236;SDS011;11287;48.122;11.536;2023-06-04T00:41:52;6.35;;;3.53;;
22236;SDS011;11287;48.122;11.536;2023-06-04T00:44:18;5.03;;;3.60;;
22236;SDS011;11287;48.122;11.536;2023-06-04T00:46:43;4.78;;;3.28;;
22236;SDS011;11287;48.122;11.536;2023-06-04T00:49:10;7.88;;;3.65;;
22236;SDS011;11287;48.122;11.536;2023-06-04T00:51:37;5.45;;;3.30;;
22236;SDS011;11287;48.122;11.536;2023-06-04T00:54:02;3.60;;;3.30;;
22236;SDS011;11287;48.122;11.536;2023-06-04T00:56:33;7.45;;;3.40;;
22236;SDS011;11287;48.122;11.536;2023-06-04T00:58:59;3.92;;;3.10;;
22236;SDS011;11287;48.122;11.536;2023-06-04T01:01:33;6.88;;;3.35;;
22236;SDS011;11287;48.122;11.536;2023-06-04T01:04:02;4.55;;;3.38;;
22236;SDS011;11287;48.122;11.536;2023-06-04T01:06:39;6.85;;;3.78;;
22236;SDS011;11287;48.122;11.536;2023-06-04T01:09:05;5.75;;;3.78;;
22236;SDS011;11287;48.122;11.536;2023-06-04T01:11:34;8.80;;;4.50;;
22236;SDS011;11287;48.122;11.536;2023-06-04T01:14:01;6.93;;;3.88;;
22236;SDS011;11287;48.122;11.536;2023-06-04T01:16:28;6.72;;;4.20;;
22236;SDS011;11287;48.122;11.536;2023-06-04T01:18:58;5.28;;;3.30;;
22236;SDS011;11287;48.122;11.536;2023-06-04T01:21:28;5.45;;;3.45;;
22236;SDS011;11287;48.122;11.536;2023-06-04T01:23:54;5.22;;;3.47;;
22236;SDS011;11287;48.122;11.536;2023-06-04T01:26:26;6.05;;;3.50;;
22236;SDS011;11287;48.122;11.536;2023-06-04T01:28:55;3.90;;;3.17;;
22236;SDS011;11287;48.122;11.536;2023-06-04T01:31:21;6.40;;;3.65;;
22236;SDS011;11287;48.122;11.536;2023-06-04T01:33:50;9.05;;;3.45;;
22236;SDS011;11287;48.122;11.536;2023-06-04T01:36:19;6.95;;;3.70;;
22236;SDS011;11287;48.122;11.536;2023-06-04T01:38:45;5.95;;;3.63;;
22236;SDS011;11287;48.122;11.536;2023-06-04T01:41:10;7.55;;;4.30;;
22236;SDS011;11287;48.122;11.536;2023-06-04T01:43:35;9.90;;;5.10;;
22236;SDS011;11287;48.122;11.536;2023-06-04T01:46:01;11.32;;;5.47;;
22236;SDS011;11287;48.122;11.536;2023-06-04T01:48:27;10.10;;;4.38;;
22236;SDS011;11287;48.122;11.536;2023-06-04T01:50:52;9.52;;;4.13;;
22236;SDS011;11287;48.122;11.536;2023-06-04T01:53:18;11.75;;;4.65;;
22236;SDS011;11287;48.122;11.536;2023-06-04T01:55:43;7.43;;;4.32;;
22236;SDS011;11287;48.122;11.536;2023-06-04T01:58:09;12.23;;;4.65;;
22236;SDS011;11287;48.122;11.536;2023-06-04T02:00:34;9.05;;;3.67;;
22236;SDS011;11287;48.122;11.536;2023-06-04T02:02:59;7.05;;;3.35;;
22236;SDS011;11287;48.122;11.536;2023-06-04T02:05:25;3.78;;;2.95;;
22236;SDS011;11287;48.122;11.536;2023-06-04T02:07:51;3.92;;;3.08;;
22236;SDS011;11287;48.122;11.536;2023-06-04T02:10:18;5.53;;;3.03;;
22236;SDS011;11287;48.122;11.536;2023-06-04T02:15:20;4.25;;;3.05;;
22236;SDS011;11287;48.122;11.536;2023-06-04T02:17:45;5.15;;;3.13;;
22236;SDS011;11287;48.122;11.536;2023-06-04T02:20:10;7.07;;;3.65;;
22236;SDS011;11287;48.122;11.536;2023-06-04T02:22:36;6.25;;;3.33;;
22236;SDS011;11287;48.122;11.536;2023-06-04T02:25:02;6.85;;;3.38;;
22236;SDS011;11287;48.122;11.536;2023-06-04T02:27:27;5.88;;;3.22;;
22236;SDS011;11287;48.122;11.536;2023-06-04T02:29:53;6.03;;;3.40;;
22236;SDS011;11287;48.122;11.536;2023-06-04T02:32:18;8.27;;;3.42;;
22236;SDS011;11287;48.122;11.536;2023-06-04T02:34:43;8.40;;;4.13;;
22236;SDS011;11287;48.122;11.536;2023-06-04T02:37:09;9.88;;;5.38;;
22236;SDS011;11287;48.122;11.536;2023-06-04T02:39:35;7.10;;;3.65;;
22236;SDS011;11287;48.122;11.536;2023-06-04T02:42:00;10.82;;;6.60;;
22236;SDS011;11287;48.122;11.536;2023-06-04T02:44:25;5.93;;;3.90;;
22236;SDS011;11287;48.122;11.536;2023-06-04T02:46:51;6.45;;;3.58;;
22236;SDS011;11287;48.122;11.536;2023-06-04T02:49:16;9.25;;;3.67;;
22236;SDS011;11287;48.122;11.536;2023-06-04T02:51:42;6.57;;;4.13;;
22236;SDS011;11287;48.122;11.536;2023-06-04T02:54:10;6.25;;;3.90;;
22236;SDS011;11287;48.122;11.536;2023-06-04T02:56:36;4.53;;;3.42;;
22236;SDS011;11287;48.122;11.536;2023-06-04T02:59:02;5.25;;;3.38;;
22236;SDS011;11287;48.122;11.536;2023-06-04T03:01:28;6.43;;;3.65;;
22236;SDS011;11287;48.122;11.536;2023-06-04T03:03:53;4.28;;;3.40;;
22236;SDS011;11287;48.122;11.536;2023-06-04T03:06:19;5.70;;;3.40;;
22236;SDS011;11287;48.122;11.536;2023-06-04T03:08:46;5.47;;;3.92;;
22236;SDS011;11287;48.122;11.536;2023-06-04T03:11:12;7.00;;;3.60;;
22236;SDS011;11287;48.122;11.536;2023-06-04T03:13:37;4.63;;;3.70;;
22236;SDS011;11287;48.122;11.536;2023-06-04T03:16:03;7.30;;;4.00;;
22236;SDS011;11287;48.122;11.536;2023-06-04T03:18:28;4.70;;;3.50;;
22236;SDS011;11287;48.122;11.536;2023-06-04T03:20:54;7.70;;;4.05;;
22236;SDS011;11287;48.122;11.536;2023-06-04T03:23:20;5.72;;;3.78;;
22236;SDS011;11287;48.122;11.536;2023-06-04T03:25:46;11.13;;;4.13;;
22236;SDS011;11287;48.122;11.536;2023-06-04T03:28:11;4.22;;;3.60;;
22236;SDS011;11287;48.122;11.536;2023-06-04T03:30:36;6.35;;;4.13;;
22236;SDS011;11287;48.122;11.536;2023-06-04T03:33:02;10.18;;;4.47;;
22236;SDS011;11287;48.122;11.536;2023-06-04T03:35:28;6.30;;;4.38;;
22236;SDS011;11287;48.122;11.536;2023-06-04T03:37:54;5.15;;;4.10;;
22236;SDS011;11287;48.122;11.536;2023-06-04T03:40:19;8.25;;;4.35;;
22236;SDS011;11287;48.122;11.536;2023-06-04T03:42:45;6.70;;;4.30;;
22236;SDS011;11287;48.122;11.536;2023-06-04T03:45:10;6.32;;;4.57;;
22236;SDS011;11287;48.122;11.536;2023-06-04T03:47:35;5.75;;;4.63;;
22236;SDS011;11287;48.122;11.536;2023-06-04T03:50:01;7.25;;;4.65;;
22236;SDS011;11287;48.122;11.536;2023-06-04T03:52:27;6.72;;;4.32;;
22236;SDS011;11287;48.122;11.536;2023-06-04T03:54:52;7.78;;;4.90;;
22236;SDS011;11287;48.122;11.536;2023-06-04T03:57:17;7.38;;;5.10;;
22236;SDS011;11287;48.122;11.536;2023-06-04T03:59:42;7.63;;;4.90;;
22236;SDS011;11287;48.122;11.536;2023-06-04T04:02:08;10.68;;;5.28;;
22236;SDS011;11287;48.122;11.536;2023-06-04T04:04:34;10.05;;;5.03;;
22236;SDS011;11287;48.122;11.536;2023-06-04T04:06:59;8.15;;;5.07;;
22236;SDS011;11287;48.122;11.536;2023-06-04T04:09:25;8.00;;;5.70;;
22236;SDS011;11287;48.122;11.536;2023-06-04T04:11:51;8.77;;;5.13;;
22236;SDS011;11287;48.122;11.536;2023-06-04T04:14:16;8.07;;;5.43;;
22236;SDS011;11287;48.122;11.536;2023-06-04T04:16:41;9.13;;;5.20;;
22236;SDS011;11287;48.122;11.536;2023-06-04T04:19:07;9.10;;;5.00;;
22236;SDS011;11287;48.122;11.536;2023-06-04T04:21:34;9.88;;;5.10;;
22236;SDS011;11287;48.122;11.536;2023-06-04T04:24:01;6.85;;;4.82;;
22236;SDS011;11287;48.122;11.536;2023-06-04T04:26:27;7.55;;;5.10;;
22236;SDS011;11287;48.122;11.536;2023-06-04T04:28:53;6.75;;;4.35;;
22236;SDS011;11287;48.122;11.536;2023-06-04T04:31:22;12.38;;;4.38;;
22236;SDS011;11287;48.122;11.536;2023-06-04T04:33:48;5.70;;;3.50;;
22236;SDS011;11287;48.122;11.536;2023-06-04T04:36:16;7.30;;;3.75;;
22236;SDS011;11287;48.122;11.536;2023-06-04T04:38:43;5.10;;;3.63;;
22236;SDS011;11287;48.122;11.536;2023-06-04T04:41:09;5.78;;;3.33;;
22236;SDS011;11287;48.122;11.536;2023-06-04T04:43:36;6.25;;;3.60;;
22236;SDS011;11287;48.122;11.536;2023-06-04T04:46:04;6.35;;;3.30;;
22236;SDS011;11287;48.122;11.536;2023-06-04T04:48:30;4.78;;;3.53;;
22236;SDS011;11287;48.122;11.536;2023-06-04T04:50:55;7.30;;;3.30;;
22236;SDS011;11287;48.122;11.536;2023-06-04T04:53:20;6.93;;;3.22;;
22236;SDS011;11287;48.122;11.536;2023-06-04T04:55:46;7.50;;;3.25;;
22236;SDS011;11287;48.122;11.536;2023-06-04T04:58:11;5.68;;;3.20;;
22236;SDS011;11287;48.122;11.536;2023-06-04T05:00:37;7.10;;;3.13;;
22236;SDS011;11287;48.122;11.536;2023-06-04T05:03:02;5.57;;;3.10;;
22236;SDS011;11287;48.122;11.536;2023-06-04T05:05:27;4.63;;;3.05;;
22236;SDS011;11287;48.122;11.536;2023-06-04T05:07:53;4.85;;;3.55;;
22236;SDS011;11287;48.122;11.536;2023-06-04T05:10:18;4.70;;;3.35;;
22236;SDS011;11287;48.122;11.536;2023-06-04T05:12:50;4.43;;;3.38;;
22236;SDS011;11287;48.122;11.536;2023-06-04T05:15:19;7.93;;;3.67;;
22236;SDS011;11287;48.122;11.536;2023-06-04T05:17:45;4.10;;;3.10;;
22236;SDS011;11287;48.122;11.536;2023-06-04T05:20:11;5.25;;;3.05;;
22236;SDS011;11287;48.122;11.536;2023-06-04T05:22:40;5.13;;;3.00;;
22236;SDS011;11287;48.122;11.536;2023-06-04T05:25:07;10.07;;;2.95;;
22236;SDS011;11287;48.122;11.536;2023-06-04T05:27:33;4.72;;;2.75;;
22236;SDS011;11287;48.122;11.536;2023-06-04T05:30:00;3.83;;;2.65;;
22236;SDS011;11287;48.122;11.536;2023-06-04T05:32:28;7.10;;;2.83;;
22236;SDS011;11287;48.122;11.536;2023-06-04T05:34:56;6.10;;;3.17;;
22236;SDS011;11287;48.122;11.536;2023-06-04T05:37:22;9.07;;;3.00;;
22236;SDS011;11287;48.122;11.536;2023-06-04T05:39:48;6.47;;;3.10;;
22236;SDS011;11287;48.122;11.536;2023-06-04T05:42:14;5.05;;;3.05;;
22236;SDS011;11287;48.122;11.536;2023-06-04T05:44:40;3.03;;;2.72;;
22236;SDS011;11287;48.122;11.536;2023-06-04T05:47:05;5.75;;;2.83;;
22236;SDS011;11287;48.122;11.536;2023-06-04T05:49:31;3.70;;;3.15;;
22236;SDS011;11287;48.122;11.536;2023-06-04T05:51:57;4.82;;;2.97;;
22236;SDS011;11287;48.122;11.536;2023-06-04T05:54:22;4.78;;;3.38;;
22236;SDS011;11287;48.122;11.536;2023-06-04T05:56:48;5.90;;;2.92;;
22236;SDS011;11287;48.122;11.536;2023-06-04T05:59:13;5.28;;;2.90;;
22236;SDS011;11287;48.122;11.536;2023-06-04T06:01:38;10.25;;;3.78;;
22236;SDS011;11287;48.122;11.536;2023-06-04T06:04:04;4.85;;;2.60;;
22236;SDS011;11287;48.122;11.536;2023-06-04T06:06:30;5.68;;;3.17;;
22236;SDS011;11287;48.122;11.536;2023-06-04T06:08:55;4.88;;;3.42;;
22236;SDS011;11287;48.122;11.536;2023-06-04T06:11:20;4.90;;;2.45;;
22236;SDS011;11287;48.122;11.536;2023-06-04T06:13:46;9.02;;;3.75;;
22236;SDS011;11287;48.122;11.536;2023-06-04T06:16:12;5.40;;;3.33;;
22236;SDS011;11287;48.122;11.536;2023-06-04T06:18:37;7.72;;;2.90;;
22236;SDS011;11287;48.122;11.536;2023-06-04T06:21:02;6.43;;;3.25;;
22236;SDS011;11287;48.122;11.536;2023-06-04T06:23:28;7.22;;;3.17;;
22236;SDS011;11287;48.122;11.536;2023-06-04T06:25:53;6.25;;;3.28;;
22236;SDS011;11287;48.122;11.536;2023-06-04T06:28:18;4.35;;;3.15;;
22236;SDS011;11287;48.122;11.536;2023-06-04T06:30:44;5.90;;;2.97;;
22236;SDS011;11287;48.122;11.536;2023-06-04T06:33:09;5.03;;;3.47;;
22236;SDS011;11287;48.122;11.536;2023-06-04T06:35:35;5.15;;;2.90;;
22236;SDS011;11287;48.122;11.536;2023-06-04T06:38:00;5.25;;;3.40;;
22236;SDS011;11287;48.122;11.536;2023-06-04T06:40:26;5.53;;;3.38;;
22236;SDS011;11287;48.122;11.536;2023-06-04T06:42:51;6.13;;;3.42;;
22236;SDS011;11287;48.122;11.536;2023-06-04T06:45:17;7.32;;;3.25;;
22236;SDS011;11287;48.122;11.536;2023-06-04T06:47:43;4.57;;;3.40;;
22236;SDS011;11287;48.122;11.536;2023-06-04T06:50:08;6.32;;;4.10;;
22236;SDS011;11287;48.122;11.536;2023-06-04T06:52:35;4.50;;;3.50;;
22236;SDS011;11287;48.122;11.536;2023-06-04T06:55:01;5.70;;;3.45;;
22236;SDS011;11287;48.122;11.536;2023-06-04T06:57:26;6.75;;;3.70;;
22236;SDS011;11287;48.122;11.536;2023-06-04T06:59:51;9.77;;;4.03;;
22236;SDS011;11287;48.122;11.536;2023-06-04T07:02:19;4.78;;;3.13;;
22236;SDS011;11287;48.122;11.536;2023-06-04T07:04:44;3.95;;;3.20;;
22236;SDS011;11287;48.122;11.536;2023-06-04T07:07:10;5.78;;;3.65;;
22236;SDS011;11287;48.122;11.536;2023-06-04T07:09:35;4.55;;;3.10;;
22236;SDS011;11287;48.122;11.536;2023-06-04T07:12:00;6.32;;;3.65;;
22236;SDS011;11287;48.122;11.536;2023-06-04T07:14:26;4.72;;;4.18;;
22236;SDS011;11287;48.122;11.536;2023-06-04T07:16:51;6.35;;;3.35;;
22236;SDS011;11287;48.122;11.536;2023-06-04T07:19:17;7.63;;;3.03;;
22236;SDS011;11287;48.122;11.536;2023-06-04T07:21:42;6.40;;;3.22;;
22236;SDS011;11287;48.122;11.536;2023-06-04T07:24:07;5.00;;;2.90;;
22236;SDS011;11287;48.122;11.536;2023-06-04T07:26:33;5.53;;;3.70;;
22236;SDS011;11287;48.122;11.536;2023-06-04T07:28:58;3.55;;;3.15;;
22236;SDS011;11287;48.122;11.536;2023-06-04T07:31:23;12.63;;;3.92;;
22236;SDS011;11287;48.122;11.536;2023-06-04T07:33:49;5.78;;;3.10;;
22236;SDS011;11287;48.122;11.536;2023-06-04T07:36:15;5.15;;;2.78;;
22236;SDS011;11287;48.122;11.536;2023-06-04T07:38:41;4.55;;;2.92;;
22236;SDS011;11287;48.122;11.536;2023-06-04T07:41:06;7.00;;;3.47;;
22236;SDS011;11287;48.122;11.536;2023-06-04T07:43:35;3.67;;;3.22;;
22236;SDS011;11287;48.122;11.536;2023-06-04T07:46:04;5.65;;;3.10;;
22236;SDS011;11287;48.122;11.536;2023-06-04T07:48:30;6.60;;;3.33;;
22236;SDS011;11287;48.122;11.536;2023-06-04T07:50:59;5.00;;;3.08;;
22236;SDS011;11287;48.122;11.536;2023-06-04T07:53:25;6.13;;;3.00;;
22236;SDS011;11287;48.122;11.536;2023-06-04T07:55:51;5.20;;;3.08;;
22236;SDS011;11287;48.122;11.536;2023-06-04T07:58:16;5.03;;;4.20;;
22236;SDS011;11287;48.122;11.536;2023-06-04T08:00:42;4.03;;;3.20;;
22236;SDS011;11287;48.122;11.536;2023-06-04T08:03:07;5.70;;;3.45;;
22236;SDS011;11287;48.122;11.536;2023-06-04T08:05:33;7.05;;;2.80;;
22236;SDS011;11287;48.122;11.536;2023-06-04T08:07:59;6.40;;;3.28;;
22236;SDS011;11287;48.122;11.536;2023-06-04T08:10:25;4.32;;;3.08;;
22236;SDS011;11287;48.122;11.536;2023-06-04T08:12:50;7.38;;;3.30;;
22236;SDS011;11287;48.122;11.536;2023-06-04T08:15:15;4.00;;;3.17;;
22236;SDS011;11287;48.122;11.536;2023-06-04T08:17:41;7.40;;;3.33;;
22236;SDS011;11287;48.122;11.536;2023-06-04T08:20:07;5.80;;;3.35;;
22236;SDS011;11287;48.122;11.536;2023-06-04T08:22:33;5.47;;;2.97;;
22236;SDS011;11287;48.122;11.536;2023-06-04T08:24:59;6.50;;;3.30;;
22236;SDS011;11287;48.122;11.536;2023-06-04T08:27:24;4.00;;;2.63;;
22236;SDS011;11287;48.122;11.536;2023-06-04T08:29:50;3.92;;;2.75;;
22236;SDS011;11287;48.122;11.536;2023-06-04T08:32:17;3.53;;;2.90;;
22236;SDS011;11287;48.122;11.536;2023-06-04T08:34:42;6.28;;;3.38;;
22236;SDS011;11287;48.122;11.536;2023-06-04T08:37:07;6.90;;;3.00;;
22236;SDS011;11287;48.122;11.536;2023-06-04T08:39:33;4.18;;;3.35;;
22236;SDS011;11287;48.122;11.536;2023-06-04T08:42:03;5.70;;;3.20;;
22236;SDS011;11287;48.122;11.536;2023-06-04T08:44:30;5.03;;;2.97;;
22236;SDS011;11287;48.122;11.536;2023-06-04T08:46:57;5.07;;;3.00;;
22236;SDS011;11287;48.122;11.536;2023-06-04T08:49:27;5.13;;;2.95;;
22236;SDS011;11287;48.122;11.536;2023-06-04T08:51:57;4.88;;;3.00;;
22236;SDS011;11287;48.122;11.536;2023-06-04T08:54:22;4.03;;;2.60;;
22236;SDS011;11287;48.122;11.536;2023-06-04T08:56:48;2.85;;;2.50;;
22236;SDS011;11287;48.122;11.536;2023-06-04T08:59:14;5.78;;;2.85;;
22236;SDS011;11287;48.122;11.536;2023-06-04T09:01:39;3.42;;;2.80;;
22236;SDS011;11287;48.122;11.536;2023-06-04T09:04:09;2.80;;;2.60;;
22236;SDS011;11287;48.122;11.536;2023-06-04T09:06:35;6.43;;;4.95;;
22236;SDS011;11287;48.122;11.536;2023-06-04T09:09:03;7.20;;;4.03;;
22236;SDS011;11287;48.122;11.536;2023-06-04T09:11:33;3.33;;;2.70;;
22236;SDS011;11287;48.122;11.536;2023-06-04T09:14:00;3.80;;;2.78;;
22236;SDS011;11287;48.122;11.536;2023-06-04T09:16:26;4.00;;;2.78;;
22236;SDS011;11287;48.122;11.536;2023-06-04T09:18:51;11.43;;;3.13;;
22236;SDS011;11287;48.122;11.536;2023-06-04T09:21:18;5.07;;;2.95;;
22236;SDS011;11287;48.122;11.536;2023-06-04T09:23:45;5.63;;;2.80;;
22236;SDS011;11287;48.122;11.536;2023-06-04T09:26:11;7.32;;;3.20;;
22236;SDS011;11287;48.122;11.536;2023-06-04T09:28:41;5.30;;;2.80;;
22236;SDS011;11287;48.122;11.536;2023-06-04T09:31:13;4.55;;;3.13;;
22236;SDS011;11287;48.122;11.536;2023-06-04T09:33:43;7.47;;;2.97;;
22236;SDS011;11287;48.122;11.536;2023-06-04T09:36:12;5.32;;;3.20;;
22236;SDS011;11287;48.122;11.536;2023-06-04T09:38:37;5.32;;;2.50;;
22236;SDS011;11287;48.122;11.536;2023-06-04T09:41:03;5.88;;;2.53;;
22236;SDS011;11287;48.122;11.536;2023-06-04T09:43:31;3.13;;;2.63;;
22236;SDS011;11287;48.122;11.536;2023-06-04T09:46:11;9.00;;;2.75;;
22236;SDS011;11287;48.122;11.536;2023-06-04T09:48:38;6.63;;;2.90;;
22236;SDS011;11287;48.122;11.536;2023-06-04T09:51:10;7.38;;;2.92;;
22236;SDS011;11287;48.122;11.536;2023-06-04T09:53:53;7.40;;;2.92;;
22236;SDS011;11287;48.122;11.536;2023-06-04T09:56:20;6.35;;;3.03;;
22236;SDS011;11287;48.122;11.536;2023-06-04T09:58:46;3.78;;;3.15;;
22236;SDS011;11287;48.122;11.536;2023-06-04T10:01:13;4.13;;;2.55;;
22236;SDS011;11287;48.122;11.536;2023-06-04T10:03:39;4.35;;;2.95;;
22236;SDS011;11287;48.122;11.536;2023-06-04T10:06:06;3.80;;;2.88;;
22236;SDS011;11287;48.122;11.536;2023-06-04T10:08:31;7.07;;;2.95;;
22236;SDS011;11287;48.122;11.536;2023-06-04T10:10:58;4.35;;;3.00;;
22236;SDS011;11287;48.122;11.536;2023-06-04T10:13:26;4.50;;;3.10;;
22236;SDS011;11287;48.122;11.536;2023-06-04T10:15:53;3.20;;;2.85;;
22236;SDS011;11287;48.122;11.536;2023-06-04T10:18:19;4.13;;;2.90;;
22236;SDS011;11287;48.122;11.536;2023-06-04T10:20:44;4.22;;;3.00;;
22236;SDS011;11287;48.122;11.536;2023-06-04T10:23:10;3.17;;;2.80;;
22236;SDS011;11287;48.122;11.536;2023-06-04T10:25:36;4.45;;;3.20;;
22236;SDS011;11287;48.122;11.536;2023-06-04T10:28:01;4.90;;;3.15;;
22236;SDS011;11287;48.122;11.536;2023-06-04T10:30:28;5.13;;;2.90;;
22236;SDS011;11287;48.122;11.536;2023-06-04T10:32:57;4.68;;;2.65;;
22236;SDS011;11287;48.122;11.536;2023-06-04T10:35:35;3.85;;;2.75;;
22236;SDS011;11287;48.122;11.536;2023-06-04T10:38:11;4.63;;;2.92;;
22236;SDS011;11287;48.122;11.536;2023-06-04T10:40:38;3.63;;;2.72;;
22236;SDS011;11287;48.122;11.536;2023-06-04T10:43:07;5.10;;;2.60;;
22236;SDS011;11287;48.122;11.536;2023-06-04T10:45:33;6.50;;;3.00;;
22236;SDS011;11287;48.122;11.536;2023-06-04T10:48:03;3.75;;;2.75;;
22236;SDS011;11287;48.122;11.536;2023-06-04T10:50:29;8.65;;;3.35;;
22236;SDS011;11287;48.122;11.536;2023-06-04T10:52:55;4.53;;;2.53;;
22236;SDS011;11287;48.122;11.536;2023-06-04T10:55:24;5.72;;;2.92;;
22236;SDS011;11287;48.122;11.536;2023-06-04T11:00:19;4.80;;;2.95;;
22236;SDS011;11287;48.122;11.536;2023-06-04T11:02:52;4.50;;;2.80;;
22236;SDS011;11287;48.122;11.536;2023-06-04T11:05:18;3.88;;;3.15;;
22236;SDS011;11287;48.122;11.536;2023-06-04T11:07:45;3.58;;;2.85;;
22236;SDS011;11287;48.122;11.536;2023-06-04T11:10:14;3.97;;;3.08;;
22236;SDS011;11287;48.122;11.536;2023-06-04T11:12:43;6.72;;;2.85;;
22236;SDS011;11287;48.122;11.536;2023-06-04T11:15:09;8.02;;;3.40;;
22236;SDS011;11287;48.122;11.536;2023-06-04T11:17:34;3.05;;;2.75;;
22236;SDS011;11287;48.122;11.536;2023-06-04T11:20:00;5.80;;;3.15;;
22236;SDS011;11287;48.122;11.536;2023-06-04T11:22:26;3.72;;;2.95;;
22236;SDS011;11287;48.122;11.536;2023-06-04T11:24:57;3.55;;;3.08;;
22236;SDS011;11287;48.122;11.536;2023-06-04T11:27:25;3.40;;;2.90;;
22236;SDS011;11287;48.122;11.536;2023-06-04T11:29:51;5.53;;;2.95;;
22236;SDS011;11287;48.122;11.536;2023-06-04T11:32:25;5.53;;;3.17;;
22236;SDS011;11287;48.122;11.536;2023-06-04T11:34:50;4.30;;;3.15;;
22236;SDS011;11287;48.122;11.536;2023-06-04T11:37:16;9.98;;;3.25;;
22236;SDS011;11287;48.122;11.536;2023-06-04T11:39:41;2.90;;;2.60;;
22236;SDS011;11287;48.122;11.536;2023-06-04T11:42:09;5.20;;;2.72;;
22236;SDS011;11287;48.122;11.536;2023-06-04T11:44:35;6.55;;;2.90;;
22236;SDS011;11287;48.122;11.536;2023-06-04T11:47:00;4.10;;;2.92;;
22236;SDS011;11287;48.122;11.536;2023-06-04T11:49:25;5.70;;;2.97;;
22236;SDS011;11287;48.122;11.536;2023-06-04T11:51:52;3.35;;;2.67;;
22236;SDS011;11287;48.122;11.536;2023-06-04T11:54:18;3.40;;;3.10;;
22236;SDS011;11287;48.122;11.536;2023-06-04T11:56:44;4.72;;;3.10;;
22236;SDS011;11287;48.122;11.536;2023-06-04T11:59:11;2.97;;;2.67;;
22236;SDS011;11287;48.122;11.536;2023-06-04T12:01:38;3.17;;;2.78;;
22236;SDS011;11287;48.122;11.536;2023-06-04T12:06:39;4.53;;;3.38;;
22236;SDS011;11287;48.122;11.536;2023-06-04T12:09:25;4.45;;;3.20;;
22236;SDS011;11287;48.122;11.536;2023-06-04T12:11:59;5.28;;;3.05;;
22236;SDS011;11287;48.122;11.536;2023-06-04T12:14:25;3.92;;;3.10;;
22236;SDS011;11287;48.122;11.536;2023-06-04T12:16:57;3.70;;;2.63;;
22236;SDS011;11287;48.122;11.536;2023-06-04T12:19:26;3.83;;;3.00;;
22236;SDS011;11287;48.122;11.536;2023-06-04T12:21:59;3.50;;;3.20;;
22236;SDS011;11287;48.122;11.536;2023-06-04T12:24:28;4.50;;;3.22;;
22236;SDS011;11287;48.122;11.536;2023-06-04T12:27:01;3.15;;;2.85;;
22236;SDS011;11287;48.122;11.536;2023-06-04T12:29:27;5.20;;;2.92;;
22236;SDS011;11287;48.122;11.536;2023-06-04T12:32:00;8.02;;;3.70;;
22236;SDS011;11287;48.122;11.536;2023-06-04T12:34:27;4.82;;;3.47;;
22236;SDS011;11287;48.122;11.536;2023-06-04T12:36:52;5.70;;;3.13;;
22236;SDS011;11287;48.122;11.536;2023-06-04T12:39:18;4.27;;;2.90;;
22236;SDS011;11287;48.122;11.536;2023-06-04T12:41:46;4.32;;;3.10;;
22236;SDS011;11287;48.122;11.536;2023-06-04T12:44:12;3.35;;;3.03;;
22236;SDS011;11287;48.122;11.536;2023-06-04T12:46:37;7.40;;;2.97;;
22236;SDS011;11287;48.122;11.536;2023-06-04T12:49:02;4.17;;;3.07;;
22236;SDS011;11287;48.122;11.536;2023-06-04T12:51:28;3.45;;;2.95;;
22236;SDS011;11287;48.122;11.536;2023-06-04T12:53:53;3.80;;;3.10;;
22236;SDS011;11287;48.122;11.536;2023-06-04T12:56:18;6.53;;;3.35;;
22236;SDS011;11287;48.122;11.536;2023-06-04T12:58:44;7.47;;;3.13;;
22236;SDS011;11287;48.122;11.536;2023-06-04T13:01:09;3.63;;;3.17;;
22236;SDS011;11287;48.122;11.536;2023-06-04T13:03:39;5.45;;;3.22;;
22236;SDS011;11287;48.122;11.536;2023-06-04T13:06:05;3.97;;;3.20;;
22236;SDS011;11287;48.122;11.536;2023-06-04T13:08:30;5.03;;;3.30;;
22236;SDS011;11287;48.122;11.536;2023-06-04T13:10:56;5.57;;;3.38;;
22236;SDS011;11287;48.122;11.536;2023-06-04T13:13:21;4.00;;;3.20;;
22236;SDS011;11287;48.122;11.536;2023-06-04T13:15:46;5.88;;;3.38;;
22236;SDS011;11287;48.122;11.536;2023-06-04T13:18:12;3.43;;;3.13;;
22236;SDS011;11287;48.122;11.536;2023-06-04T13:20:39;5.05;;;3.40;;
22236;SDS011;11287;48.122;11.536;2023-06-04T13:23:05;3.88;;;3.22;;
22236;SDS011;11287;48.122;11.536;2023-06-04T13:25:30;4.75;;;3.15;;
22236;SDS011;11287;48.122;11.536;2023-06-04T13:27:57;5.85;;;3.33;;
22236;SDS011;11287;48.122;11.536;2023-06-04T13:30:23;5.75;;;3.20;;
22236;SDS011;11287;48.122;11.536;2023-06-04T13:32:49;5.22;;;3.20;;
22236;SDS011;11287;48.122;11.536;2023-06-04T13:35:14;5.10;;;3.67;;
22236;SDS011;11287;48.122;11.536;2023-06-04T13:37:40;4.50;;;3.17;;
22236;SDS011;11287;48.122;11.536;2023-06-04T13:40:05;4.27;;;3.53;;
22236;SDS011;11287;48.122;11.536;2023-06-04T13:42:31;7.63;;;3.53;;
22236;SDS011;11287;48.122;11.536;2023-06-04T13:44:56;6.47;;;2.90;;
22236;SDS011;11287;48.122;11.536;2023-06-04T13:47:22;6.40;;;3.30;;
22236;SDS011;11287;48.122;11.536;2023-06-04T13:49:47;5.27;;;3.33;;
22236;SDS011;11287;48.122;11.536;2023-06-04T13:52:13;8.83;;;3.40;;
22236;SDS011;11287;48.122;11.536;2023-06-04T13:54:38;4.90;;;3.65;;
22236;SDS011;11287;48.122;11.536;2023-06-04T13:57:03;5.93;;;3.50;;
22236;SDS011;11287;48.122;11.536;2023-06-04T13:59:29;5.32;;;3.42;;
22236;SDS011;11287;48.122;11.536;2023-06-04T14:01:56;8.95;;;3.90;;
22236;SDS011;11287;48.122;11.536;2023-06-04T14:04:21;7.15;;;3.55;;
22236;SDS011;11287;48.122;11.536;2023-06-04T14:06:46;7.35;;;3.47;;
22236;SDS011;11287;48.122;11.536;2023-06-04T14:09:12;9.23;;;3.30;;
22236;SDS011;11287;48.122;11.536;2023-06-04T14:11:38;4.38;;;3.20;;
22236;SDS011;11287;48.122;11.536;2023-06-04T14:14:04;8.55;;;3.80;;
22236;SDS011;11287;48.122;11.536;2023-06-04T14:16:29;6.53;;;3.55;;
22236;SDS011;11287;48.122;11.536;2023-06-04T14:18:54;11.87;;;3.60;;
22236;SDS011;11287;48.122;11.536;2023-06-04T14:21:20;7.15;;;3.28;;
22236;SDS011;11287;48.122;11.536;2023-06-04T14:23:46;6.82;;;3.90;;
22236;SDS011;11287;48.122;11.536;2023-06-04T14:26:12;5.60;;;3.20;;
22236;SDS011;11287;48.122;11.536;2023-06-04T14:28:37;4.78;;;3.53;;
22236;SDS011;11287;48.122;11.536;2023-06-04T14:31:02;4.18;;;3.70;;
22236;SDS011;11287;48.122;11.536;2023-06-04T14:33:28;3.70;;;3.40;;
22236;SDS011;11287;48.122;11.536;2023-06-04T14:35:53;7.68;;;3.20;;